createdAt,value
2023-02-04T00:02:04.154Z,46.80
2023-02-04T00:04:30.708Z,47.00
2023-02-04T00:06:57.227Z,45.40
2023-02-04T00:09:23.731Z,47.20
2023-02-04T00:11:50.314Z,45.20
2023-02-04T00:14:16.816Z,44.00
2023-02-04T00:16:43.308Z,44.60
2023-02-04T00:19:09.870Z,44.90
2023-02-04T00:21:36.410Z,41.30
2023-02-04T00:24:03.014Z,41.90
2023-02-04T00:26:29.560Z,44.10
2023-02-04T00:28:56.346Z,43.30
2023-02-04T00:31:22.949Z,43.50
2023-02-04T00:33:49.518Z,44.10
2023-02-04T00:36:16.050Z,42.60
2023-02-04T00:38:42.567Z,42.80
2023-02-04T00:41:09.092Z,44.20
2023-02-04T00:43:35.635Z,44.30
2023-02-04T00:46:02.173Z,43.10
2023-02-04T00:48:28.738Z,45.80
2023-02-04T00:50:55.300Z,46.10
2023-02-04T00:53:21.944Z,46.40
2023-02-04T00:55:48.480Z,46.80
2023-02-04T00:58:14.988Z,47.10
2023-02-04T01:00:41.556Z,45.30
2023-02-04T01:03:08.227Z,47.40
2023-02-04T01:05:34.790Z,45.90
2023-02-04T01:08:01.412Z,46.40
2023-02-04T01:10:28.294Z,46.10
2023-02-04T01:12:55.099Z,47.80
2023-02-04T01:15:22.697Z,46.00
2023-02-04T01:17:49.424Z,47.50
2023-02-04T01:20:16.168Z,47.80
2023-02-04T01:22:42.812Z,43.10
2023-02-04T01:25:09.749Z,40.90
2023-02-04T01:27:36.371Z,39.70
2023-02-04T01:30:04.016Z,37.60
2023-02-04T01:32:30.536Z,38.30
2023-02-04T01:34:57.316Z,41.40
2023-02-04T01:37:23.865Z,40.20
2023-02-04T01:39:50.407Z,37.00
2023-02-04T01:42:17.022Z,37.10
2023-02-04T01:44:43.662Z,37.00
2023-02-04T01:47:10.390Z,33.90
2023-02-04T01:49:36.925Z,33.60
2023-02-04T01:52:03.627Z,32.30
2023-02-04T01:54:30.188Z,31.50
2023-02-04T01:56:56.914Z,30.10
2023-02-04T01:59:23.556Z,30.80
2023-02-04T02:01:51.296Z,30.80
2023-02-04T02:04:19.112Z,26.80
2023-02-04T02:06:47.829Z,27.60
2023-02-04T02:09:15.158Z,26.30
2023-02-04T02:11:41.823Z,26.70
2023-02-04T02:14:08.549Z,24.00
2023-02-04T02:16:35.224Z,24.30
2023-02-04T02:19:01.866Z,23.90
2023-02-04T02:21:34.925Z,26.20
2023-02-04T02:24:15.785Z,26.90
2023-02-04T02:26:42.270Z,28.90
2023-02-04T02:29:08.786Z,31.50
2023-02-04T02:31:35.595Z,33.40
2023-02-04T02:34:02.206Z,36.20
2023-02-04T02:36:28.731Z,37.00
2023-02-04T02:38:55.884Z,36.90
2023-02-04T02:41:22.444Z,37.00
2023-02-04T02:43:49.033Z,36.90
2023-02-04T02:46:15.629Z,36.90
2023-02-04T02:48:42.214Z,35.70
2023-02-04T02:51:08.792Z,35.60
2023-02-04T02:53:35.756Z,30.00
2023-02-04T02:56:04.684Z,30.00
2023-02-04T02:58:32.737Z,26.80
2023-02-04T03:00:59.960Z,26.60
2023-02-04T03:03:27.951Z,26.60
2023-02-04T03:05:56.282Z,24.60
2023-02-04T03:08:22.952Z,23.70
2023-02-04T03:10:49.522Z,23.00
2023-02-04T03:13:17.161Z,23.10
2023-02-04T03:15:44.923Z,23.50
2023-02-04T03:18:11.964Z,22.10
2023-02-04T03:20:39.057Z,21.60
2023-02-04T03:23:05.566Z,23.50
2023-02-04T03:25:32.079Z,22.70
2023-02-04T03:27:58.645Z,23.10
2023-02-04T03:30:25.760Z,24.10
2023-02-04T03:32:52.334Z,23.80
2023-02-04T03:35:19.287Z,24.60
2023-02-04T03:37:45.844Z,25.70
2023-02-04T03:40:12.524Z,26.40
2023-02-04T03:42:39.130Z,27.90
2023-02-04T03:45:05.815Z,28.60
2023-02-04T03:47:32.591Z,30.10
2023-02-04T03:49:59.165Z,32.20
2023-02-04T03:52:25.682Z,32.70
2023-02-04T03:54:52.168Z,33.90
2023-02-04T03:57:18.761Z,36.50
2023-02-04T03:59:45.262Z,34.60
2023-02-04T04:02:11.800Z,35.10
2023-02-04T04:04:38.399Z,36.30
2023-02-04T04:07:04.983Z,36.40
2023-02-04T04:09:31.513Z,36.40
2023-02-04T04:11:58.048Z,37.10
2023-02-04T04:14:24.562Z,36.40
2023-02-04T04:16:51.086Z,37.00
2023-02-04T04:19:17.596Z,38.50
2023-02-04T04:21:44.114Z,39.70
2023-02-04T04:24:10.616Z,39.00
2023-02-04T04:26:37.281Z,39.50
2023-02-04T04:29:03.870Z,36.40
2023-02-04T04:31:30.990Z,36.40
2023-02-04T04:33:57.875Z,39.20
2023-02-04T04:36:24.416Z,38.90
2023-02-04T04:38:50.941Z,39.20
2023-02-04T04:41:17.473Z,38.60
2023-02-04T04:43:43.993Z,38.60
2023-02-04T04:46:10.517Z,39.60
2023-02-04T04:48:37.040Z,40.60
2023-02-04T04:51:03.719Z,41.40
2023-02-04T04:53:30.290Z,40.70
2023-02-04T04:55:56.872Z,41.40
2023-02-04T04:58:23.390Z,41.30
2023-02-04T05:00:49.939Z,43.30
2023-02-04T05:03:16.468Z,42.00
2023-02-04T05:05:44.212Z,42.20
2023-02-04T05:08:13.263Z,42.30
2023-02-04T05:10:40.315Z,43.00
2023-02-04T05:13:06.952Z,43.20
2023-02-04T05:15:33.613Z,44.70
2023-02-04T05:18:00.201Z,44.50
2023-02-04T05:20:26.765Z,42.40
2023-02-04T05:22:53.316Z,42.20
2023-02-04T05:25:19.793Z,42.70
2023-02-04T05:27:46.337Z,41.70
2023-02-04T05:30:13.291Z,42.20
2023-02-04T05:32:39.792Z,42.20
2023-02-04T05:35:06.590Z,41.40
2023-02-04T05:37:33.140Z,42.60
2023-02-04T05:39:59.677Z,41.50
2023-02-04T05:42:26.239Z,43.60
2023-02-04T05:44:52.758Z,44.40
2023-02-04T05:47:20.426Z,44.90
2023-02-04T05:49:47.006Z,45.10
2023-02-04T05:52:13.557Z,45.80
2023-02-04T05:54:40.119Z,49.30
2023-02-04T05:57:06.620Z,50.40
2023-02-04T05:59:33.134Z,52.20
2023-02-04T06:01:59.635Z,54.20
2023-02-04T06:04:26.244Z,55.90
2023-02-04T06:06:52.800Z,57.40
2023-02-04T06:09:19.368Z,57.30
2023-02-04T06:11:45.903Z,57.30
2023-02-04T06:14:12.564Z,58.80
2023-02-04T06:16:39.183Z,59.00
2023-02-04T06:19:05.768Z,59.30
2023-02-04T06:21:32.395Z,57.90
2023-02-04T06:23:58.917Z,57.20
2023-02-04T06:26:25.491Z,57.80
2023-02-04T06:28:52.405Z,57.20
2023-02-04T06:31:18.967Z,57.10
2023-02-04T06:33:45.518Z,57.10
2023-02-04T06:36:12.121Z,57.10
2023-02-04T06:38:38.748Z,57.10
2023-02-04T06:41:05.374Z,57.00
2023-02-04T06:43:31.958Z,57.00
2023-02-04T06:45:58.506Z,57.60
2023-02-04T06:48:25.159Z,60.60
2023-02-04T06:50:51.739Z,57.00
2023-02-04T06:53:18.301Z,52.50
2023-02-04T06:55:44.831Z,50.60
2023-02-04T06:58:11.392Z,52.70
2023-02-04T07:00:38.012Z,56.50
2023-02-04T07:03:04.757Z,58.40
2023-02-04T07:05:31.941Z,61.70
2023-02-04T07:07:58.569Z,63.70
2023-02-04T07:10:25.191Z,64.70
2023-02-04T07:12:51.716Z,65.50
2023-02-04T07:15:18.346Z,65.80
2023-02-04T07:17:44.829Z,66.10
2023-02-04T07:20:11.690Z,67.60
2023-02-04T07:22:38.222Z,68.80
2023-02-04T07:25:04.947Z,71.50
2023-02-04T07:27:31.544Z,73.20
2023-02-04T07:29:58.098Z,73.80
2023-02-04T07:32:24.570Z,73.90
2023-02-04T07:34:51.063Z,72.50
2023-02-04T07:37:17.600Z,71.00
2023-02-04T07:39:44.108Z,71.30
2023-02-04T07:42:10.584Z,71.60
2023-02-04T07:44:37.828Z,71.70
2023-02-04T07:47:04.427Z,71.00
2023-02-04T07:49:30.954Z,72.70
2023-02-04T07:51:57.844Z,70.60
2023-02-04T07:54:24.395Z,69.70
2023-02-04T07:56:50.933Z,68.60
2023-02-04T07:59:17.466Z,68.30
2023-02-04T08:01:44.125Z,65.60
2023-02-04T08:04:10.678Z,65.30
2023-02-04T08:06:37.196Z,62.30
2023-02-04T08:09:03.964Z,60.40
2023-02-04T08:11:30.545Z,58.60
2023-02-04T08:13:57.166Z,58.30
2023-02-04T08:16:24.187Z,55.70
2023-02-04T08:18:50.835Z,53.30
2023-02-04T08:21:19.227Z,48.20
2023-02-04T08:23:46.008Z,47.20
2023-02-04T08:26:12.576Z,42.80
2023-02-04T08:28:39.183Z,41.90
2023-02-04T08:31:07.070Z,38.50
2023-02-04T08:33:33.697Z,36.60
2023-02-04T08:36:00.356Z,32.80
2023-02-04T08:38:27.191Z,32.50
2023-02-04T08:40:53.849Z,27.40
2023-02-04T08:43:20.389Z,28.00
2023-02-04T08:45:46.916Z,30.00
2023-02-04T08:48:13.441Z,31.60
2023-02-04T08:50:39.999Z,31.80
2023-02-04T08:53:06.496Z,30.00
2023-02-04T08:55:33.104Z,32.70
2023-02-04T08:58:01.218Z,30.60
2023-02-04T09:00:27.805Z,28.80
2023-02-04T09:02:54.330Z,29.20
2023-02-04T09:05:20.905Z,27.40
2023-02-04T09:07:47.456Z,28.30
2023-02-04T09:10:14.043Z,28.30
2023-02-04T09:12:42.019Z,29.10
2023-02-04T09:15:09.716Z,29.10
2023-02-04T09:17:37.243Z,26.40
2023-02-04T09:20:04.669Z,23.70
2023-02-04T09:22:31.477Z,22.20
2023-02-04T09:24:58.014Z,19.60
2023-02-04T09:27:24.518Z,20.90
2023-02-04T09:29:51.040Z,19.60
2023-02-04T09:32:17.548Z,18.70
2023-02-04T09:34:44.141Z,17.60
2023-02-04T09:37:10.683Z,17.60
2023-02-04T09:39:37.234Z,15.00
2023-02-04T09:42:03.850Z,13.70
2023-02-04T09:44:30.459Z,8.50
2023-02-04T09:46:59.287Z,5.50
2023-02-04T09:49:26.484Z,3.70
2023-02-04T09:51:54.217Z,5.90
2023-02-04T09:54:21.659Z,4.70
2023-02-04T09:56:48.405Z,7.00
2023-02-04T09:59:19.873Z,3.90
2023-02-04T10:01:55.843Z,5.00
2023-02-04T10:04:22.789Z,2.80
2023-02-04T10:06:49.496Z,4.00
2023-02-04T10:09:16.560Z,4.60
2023-02-04T10:11:44.530Z,2.30
2023-02-04T10:14:14.063Z,2.00
2023-02-04T10:16:43.308Z,3.90
2023-02-04T10:19:13.070Z,6.20
2023-02-04T10:21:42.703Z,6.40
2023-02-04T10:24:26.169Z,4.90
2023-02-04T10:26:52.769Z,8.20
2023-02-04T10:29:20.836Z,8.10
2023-02-04T10:31:49.092Z,8.10
2023-02-04T10:34:18.745Z,8.10
2023-02-04T10:36:50.162Z,8.90
2023-02-04T10:39:16.847Z,7.10
2023-02-04T10:41:53.506Z,4.10
2023-02-04T10:44:25.310Z,6.50
2023-02-04T10:46:59.061Z,5.20
2023-02-04T10:49:25.604Z,4.10
2023-02-04T10:51:52.800Z,4.80
2023-02-04T10:54:32.815Z,3.00
2023-02-04T10:57:00.452Z,2.40
2023-02-04T10:59:27.888Z,1.00
2023-02-04T11:01:59.259Z,1.00
2023-02-04T11:04:26.541Z,1.00
2023-02-04T11:06:53.217Z,1.00
2023-02-04T11:09:19.742Z,68.50
2023-02-04T11:11:47.724Z,7.00
2023-02-04T11:14:25.341Z,1.00
2023-02-04T11:16:53.553Z,1.00
2023-02-04T11:19:31.251Z,1.00
2023-02-04T11:22:04.989Z,1.00
2023-02-04T11:24:33.285Z,1.00
2023-02-04T11:27:19.710Z,1.00
2023-02-04T11:29:47.793Z,1.00
2023-02-04T11:32:30.146Z,1.00
2023-02-04T11:35:06.777Z,1.00
2023-02-04T11:37:33.269Z,1.00
2023-02-04T11:40:01.167Z,1.00
2023-02-04T11:42:41.095Z,1.00
2023-02-04T11:45:19.902Z,1.00
2023-02-04T11:47:46.724Z,1.00
2023-02-04T11:50:17.475Z,1.00
2023-02-04T11:52:44.043Z,1.00
2023-02-04T11:55:10.879Z,1.00
2023-02-04T11:57:38.365Z,1.00
2023-02-04T12:00:05.534Z,1.00
2023-02-04T12:02:41.247Z,1.00
2023-02-04T12:05:15.203Z,1.00
2023-02-04T12:07:42.232Z,1.00
2023-02-04T12:10:15.094Z,1.00
2023-02-04T12:12:57.765Z,1.00
2023-02-04T12:15:25.736Z,1.00
2023-02-04T12:18:02.641Z,1.00
2023-02-04T12:20:29.306Z,1.00
2023-02-04T12:22:56.117Z,1.00
2023-02-04T12:25:23.012Z,1.00
2023-02-04T12:27:49.576Z,1.00
2023-02-04T12:30:18.426Z,1.00
2023-02-04T12:32:44.932Z,1.00
2023-02-04T12:35:11.517Z,1.00
2023-02-04T12:37:38.075Z,1.00
2023-02-04T12:40:04.939Z,1.00
2023-02-04T12:42:31.517Z,1.00
2023-02-04T12:44:58.021Z,1.00
2023-02-04T12:47:24.517Z,1.00
2023-02-04T12:49:51.093Z,1.00
2023-02-04T12:52:17.780Z,1.00
2023-02-04T12:54:44.383Z,1.00
2023-02-04T12:57:11.661Z,1.00
2023-02-04T12:59:38.282Z,1.00
2023-02-04T13:02:04.963Z,1.00
2023-02-04T13:04:31.546Z,1.00
2023-02-04T13:06:58.157Z,1.00
2023-02-04T13:09:24.704Z,1.00
2023-02-04T13:11:51.200Z,1.00
2023-02-04T13:14:17.709Z,1.00
2023-02-04T13:16:44.249Z,1.00
2023-02-04T13:19:10.809Z,1.00
2023-02-04T13:21:37.356Z,1.00
2023-02-04T13:24:04.000Z,1.00
2023-02-04T13:26:30.570Z,1.00
2023-02-04T13:28:57.134Z,1.00
2023-02-04T13:31:23.775Z,1.00
2023-02-04T13:33:50.346Z,1.00
2023-02-04T13:36:16.926Z,1.00
2023-02-04T13:38:43.479Z,1.00
2023-02-04T13:41:10.062Z,1.00
2023-02-04T13:43:36.624Z,1.00
2023-02-04T13:46:05.310Z,1.00
2023-02-04T13:48:31.897Z,1.00
2023-02-04T13:50:58.488Z,1.00
2023-02-04T13:53:30.823Z,1.00
2023-02-04T13:55:58.164Z,1.00
2023-02-04T13:58:25.206Z,1.00
2023-02-04T14:00:51.813Z,1.00
2023-02-04T14:03:18.403Z,1.00
2023-02-04T14:05:44.962Z,1.00
2023-02-04T14:08:11.453Z,1.00
2023-02-04T14:10:38.866Z,1.00
2023-02-04T14:13:05.551Z,1.00
2023-02-04T14:15:32.261Z,1.00
2023-02-04T14:17:58.752Z,1.00
2023-02-04T14:20:25.261Z,1.00
2023-02-04T14:22:51.755Z,1.00
2023-02-04T14:25:18.373Z,1.00
2023-02-04T14:27:44.925Z,1.00
2023-02-04T14:30:21.952Z,1.00
2023-02-04T14:32:48.494Z,1.00
2023-02-04T14:35:15.628Z,1.00
2023-02-04T14:37:42.181Z,1.00
2023-02-04T14:40:09.580Z,1.00
2023-02-04T14:42:37.225Z,1.00
2023-02-04T14:45:05.387Z,1.00
2023-02-04T14:47:32.602Z,1.00
2023-02-04T14:49:59.103Z,1.00
2023-02-04T14:52:25.635Z,1.00
2023-02-04T14:54:52.256Z,1.00
2023-02-04T14:57:19.134Z,1.00
2023-02-04T14:59:45.683Z,1.00
2023-02-04T15:02:15.184Z,1.00
2023-02-04T15:04:42.529Z,1.00
2023-02-04T15:07:09.034Z,1.00
2023-02-04T15:09:35.532Z,1.00
2023-02-04T15:12:02.339Z,1.00
2023-02-04T15:14:28.910Z,1.00
2023-02-04T15:16:55.550Z,1.00
2023-02-04T15:19:23.627Z,1.00
2023-02-04T15:21:50.262Z,1.00
2023-02-04T15:24:16.809Z,1.00
2023-02-04T15:26:43.446Z,1.00
2023-02-04T15:29:09.981Z,1.00
2023-02-04T15:31:36.647Z,1.00
2023-02-04T15:34:04.750Z,1.00
2023-02-04T15:36:32.461Z,1.00
2023-02-04T15:38:58.994Z,1.00
2023-02-04T15:41:25.972Z,1.00
2023-02-04T15:43:52.591Z,1.00
2023-02-04T15:46:19.164Z,1.00
2023-02-04T15:48:45.840Z,1.00
2023-02-04T15:51:12.400Z,1.00
2023-02-04T15:53:38.990Z,1.00
2023-02-04T15:56:05.967Z,1.00
2023-02-04T15:58:32.478Z,1.00
2023-02-04T16:00:59.021Z,1.00
2023-02-04T16:03:25.626Z,1.00
2023-02-04T16:05:52.198Z,1.00
2023-02-04T16:08:18.743Z,1.00
2023-02-04T16:10:45.302Z,1.00
2023-02-04T16:13:11.791Z,1.00
2023-02-04T16:15:38.400Z,1.00
2023-02-04T16:18:04.964Z,1.00
2023-02-04T16:20:31.704Z,1.00
2023-02-04T16:22:58.260Z,1.00
2023-02-04T16:25:25.264Z,1.00
2023-02-04T16:27:51.825Z,1.00
2023-02-04T16:30:18.478Z,1.00
2023-02-04T16:32:45.029Z,1.00
2023-02-04T16:35:11.540Z,1.00
2023-02-04T16:37:38.141Z,1.60
2023-02-04T16:40:05.682Z,1.30
2023-02-04T16:42:32.229Z,1.60
2023-02-04T16:44:59.236Z,2.30
2023-02-04T16:47:25.822Z,2.30
2023-02-04T16:49:52.441Z,4.00
2023-02-04T16:52:19.020Z,5.70
2023-02-04T16:54:45.621Z,5.30
2023-02-04T16:57:14.547Z,6.30
2023-02-04T16:59:41.132Z,7.00
2023-02-04T17:02:07.692Z,7.00
2023-02-04T17:04:34.602Z,7.00
2023-02-04T17:07:01.126Z,7.00
2023-02-04T17:09:28.016Z,7.50
2023-02-04T17:11:54.619Z,9.20
2023-02-04T17:14:22.146Z,10.10
2023-02-04T17:16:51.459Z,10.10
2023-02-04T17:19:18.861Z,10.90
2023-02-04T17:21:45.672Z,11.10
2023-02-04T17:24:12.574Z,12.10
2023-02-04T17:26:39.652Z,13.70
2023-02-04T17:29:07.597Z,14.30
2023-02-04T17:31:34.659Z,15.80
2023-02-04T17:34:01.468Z,15.80
2023-02-04T17:36:30.051Z,15.70
2023-02-04T17:38:56.760Z,16.60
2023-02-04T17:41:23.587Z,17.50
2023-02-04T17:43:50.562Z,18.40
2023-02-04T17:46:17.122Z,18.80
2023-02-04T17:48:43.666Z,19.20
2023-02-04T17:51:10.263Z,20.10
2023-02-04T17:53:38.748Z,20.70
2023-02-04T17:56:09.675Z,21.00
2023-02-04T17:58:37.627Z,22.10
2023-02-04T18:01:14.767Z,23.30
2023-02-04T18:03:46.132Z,23.30
2023-02-04T18:06:15.840Z,24.20
2023-02-04T18:08:42.395Z,24.10
2023-02-04T18:11:35.404Z,24.40
2023-02-04T18:14:05.455Z,24.10
2023-02-04T18:16:33.728Z,24.30
2023-02-04T18:19:35.060Z,26.10
2023-02-04T18:22:05.509Z,26.90
2023-02-04T18:24:39.715Z,28.20
2023-02-04T18:27:21.135Z,29.40
2023-02-04T18:29:50.754Z,30.00
2023-02-04T18:32:21.101Z,30.90
2023-02-04T18:34:48.956Z,31.00
2023-02-04T18:37:33.653Z,31.60
2023-02-04T18:40:16.440Z,32.10
2023-02-04T18:42:43.933Z,33.00
2023-02-04T18:45:13.896Z,32.90
2023-02-04T18:47:41.091Z,32.80
2023-02-04T18:50:20.092Z,33.20
2023-02-04T18:52:46.754Z,34.90
2023-02-04T18:55:26.497Z,36.30
2023-02-04T18:57:53.047Z,37.30
2023-02-04T19:00:23.299Z,38.10
2023-02-04T19:02:52.362Z,37.90
2023-02-04T19:05:26.939Z,37.80
2023-02-04T19:08:05.710Z,38.00
2023-02-04T19:10:32.449Z,38.50
2023-02-04T19:13:18.052Z,39.60
2023-02-04T19:15:45.534Z,40.30
2023-02-04T19:18:28.779Z,42.00
2023-02-04T19:20:56.249Z,43.10
2023-02-04T19:23:23.818Z,43.00
2023-02-04T19:25:51.735Z,43.50
2023-02-04T19:28:25.090Z,43.10
2023-02-04T19:31:10.604Z,43.60
2023-02-04T19:33:42.654Z,43.80
2023-02-04T19:36:23.341Z,42.90
2023-02-04T19:38:52.929Z,42.90
2023-02-04T19:41:27.277Z,43.80
2023-02-04T19:44:21.146Z,45.00
2023-02-04T19:46:47.636Z,45.90
2023-02-04T19:49:22.968Z,46.50
2023-02-04T19:51:53.724Z,46.30
2023-02-04T19:54:24.035Z,46.40
2023-02-04T19:56:51.618Z,46.80
2023-02-04T19:59:21.254Z,47.20
2023-02-04T20:01:47.837Z,48.30
2023-02-04T20:04:17.768Z,49.40
2023-02-04T20:06:45.339Z,52.20
2023-02-04T20:09:26.499Z,52.80
2023-02-04T20:11:58.162Z,52.70
2023-02-04T20:14:35.154Z,52.80
2023-02-04T20:17:03.496Z,52.70
2023-02-04T20:19:30.025Z,52.60
2023-02-04T20:22:15.366Z,52.60
2023-02-04T20:24:42.446Z,52.60
2023-02-04T20:27:23.276Z,53.50
2023-02-04T20:29:50.913Z,57.50
2023-02-04T20:32:26.200Z,59.30
2023-02-04T20:34:57.120Z,59.70
2023-02-04T20:37:26.371Z,60.70
2023-02-04T20:39:52.894Z,62.50
2023-02-04T20:42:39.858Z,62.20
2023-02-04T20:45:12.529Z,60.20
2023-02-04T20:47:39.054Z,59.30
2023-02-04T20:50:25.535Z,60.00
2023-02-04T20:52:52.025Z,60.40
2023-02-04T20:55:34.744Z,60.50
2023-02-04T20:58:07.413Z,59.10
2023-02-04T21:00:39.048Z,57.60
2023-02-04T21:03:20.988Z,56.70
2023-02-04T21:05:50.138Z,56.10
2023-02-04T21:08:22.669Z,56.50
2023-02-04T21:10:49.285Z,57.00
2023-02-04T21:13:15.817Z,57.30
2023-02-04T21:15:42.355Z,57.30
2023-02-04T21:18:08.922Z,57.30
2023-02-04T21:20:36.988Z,56.80
2023-02-04T21:23:03.831Z,56.80
2023-02-04T21:25:30.664Z,58.40
2023-02-04T21:27:57.453Z,61.80
2023-02-04T21:30:26.120Z,62.10
2023-02-04T21:32:52.659Z,63.50
2023-02-04T21:35:24.238Z,63.50
2023-02-04T21:37:54.554Z,63.40
2023-02-04T21:40:21.997Z,61.70
2023-02-04T21:42:49.135Z,61.70
2023-02-04T21:45:17.406Z,61.70
2023-02-04T21:47:44.498Z,61.70
2023-02-04T21:50:11.818Z,61.70
2023-02-04T21:52:38.371Z,62.10
2023-02-04T21:55:05.074Z,61.60
2023-02-04T21:57:32.165Z,61.50
2023-02-04T21:59:58.771Z,61.50
2023-02-04T22:02:25.530Z,61.50
2023-02-04T22:04:52.590Z,60.80
2023-02-04T22:07:19.438Z,61.20
2023-02-04T22:09:48.022Z,61.40
2023-02-04T22:12:14.585Z,63.00
2023-02-04T22:14:41.094Z,64.40
2023-02-04T22:17:07.650Z,65.20
2023-02-04T22:19:34.159Z,67.10
2023-02-04T22:22:00.689Z,68.80
2023-02-04T22:24:27.178Z,67.50
2023-02-04T22:26:53.776Z,66.90
2023-02-04T22:29:23.500Z,66.00
2023-02-04T22:31:50.253Z,65.50
2023-02-04T22:34:16.811Z,63.80
2023-02-04T22:36:43.451Z,62.70
2023-02-04T22:39:09.950Z,61.50
2023-02-04T22:41:36.515Z,61.30
2023-02-04T22:44:03.155Z,61.20
2023-02-04T22:46:29.868Z,61.80
2023-02-04T22:48:56.652Z,62.80
2023-02-04T22:51:23.295Z,62.70
2023-02-04T22:53:49.814Z,62.80
2023-02-04T22:56:16.343Z,63.50
2023-02-04T22:58:42.978Z,64.10
2023-02-04T23:01:09.579Z,66.90
2023-02-04T23:03:36.087Z,69.50
2023-02-04T23:06:02.636Z,69.60
2023-02-04T23:08:29.182Z,69.50
2023-02-04T23:10:55.735Z,69.50
2023-02-04T23:13:22.344Z,69.50
2023-02-04T23:15:49.038Z,68.10
2023-02-04T23:18:15.617Z,67.20
2023-02-04T23:20:42.133Z,66.20
2023-02-04T23:23:09.164Z,66.10
2023-02-04T23:25:35.846Z,66.60
2023-02-04T23:28:02.545Z,68.00
2023-02-04T23:30:29.206Z,69.40
2023-02-04T23:32:55.745Z,69.40
2023-02-04T23:35:22.339Z,69.30
2023-02-04T23:37:48.872Z,69.30
2023-02-04T23:40:15.465Z,69.40
2023-02-04T23:42:42.077Z,69.30
2023-02-04T23:45:08.773Z,69.30
2023-02-04T23:47:35.266Z,71.60
2023-02-04T23:50:02.249Z,72.20
2023-02-04T23:52:29.478Z,72.10
2023-02-04T23:54:56.045Z,72.60
2023-02-04T23:57:22.982Z,73.30
2023-02-04T23:59:49.518Z,75.20
